sensor_id;sensor_type;location;lat;lon;timestamp;temperature;humidity
17348;DHT22;8791;50.876;4.342;2023-09-30T00:02:26;15.20;99.90
17348;DHT22;8791;50.876;4.342;2023-09-30T00:04:53;15.20;99.90
17348;DHT22;8791;50.876;4.342;2023-09-30T00:07:20;15.40;99.90
17348;DHT22;8791;50.876;4.342;2023-09-30T00:09:47;15.40;99.90
17348;DHT22;8791;50.876;4.342;2023-09-30T00:12:14;15.30;99.90
17348;DHT22;8791;50.876;4.342;2023-09-30T00:14:41;15.30;99.90
17348;DHT22;8791;50.876;4.342;2023-09-30T00:17:10;15.30;99.90
17348;DHT22;8791;50.876;4.342;2023-09-30T00:19:36;15.50;99.90
17348;DHT22;8791;50.876;4.342;2023-09-30T00:22:03;15.70;99.90
17348;DHT22;8791;50.876;4.342;2023-09-30T00:24:30;15.60;99.90
17348;DHT22;8791;50.876;4.342;2023-09-30T00:26:57;15.40;99.90
17348;DHT22;8791;50.876;4.342;2023-09-30T00:29:24;15.30;99.90
17348;DHT22;8791;50.876;4.342;2023-09-30T00:31:52;15.20;99.90
17348;DHT22;8791;50.876;4.342;2023-09-30T00:34:20;15.10;99.90
17348;DHT22;8791;50.876;4.342;2023-09-30T00:36:47;15.00;99.90
17348;DHT22;8791;50.876;4.342;2023-09-30T00:39:14;15.00;99.90
17348;DHT22;8791;50.876;4.342;2023-09-30T00:41:41;15.00;99.90
17348;DHT22;8791;50.876;4.342;2023-09-30T00:44:08;15.00;99.90
17348;DHT22;8791;50.876;4.342;2023-09-30T00:46:37;15.00;99.90
17348;DHT22;8791;50.876;4.342;2023-09-30T00:49:05;15.00;99.90
17348;DHT22;8791;50.876;4.342;2023-09-30T00:51:34;15.10;99.90
17348;DHT22;8791;50.876;4.342;2023-09-30T00:54:01;15.10;99.90
17348;DHT22;8791;50.876;4.342;2023-09-30T00:56:30;15.10;99.90
17348;DHT22;8791;50.876;4.342;2023-09-30T00:58:57;15.20;99.90
17348;DHT22;8791;50.876;4.342;2023-09-30T01:01:24;15.10;99.90
17348;DHT22;8791;50.876;4.342;2023-09-30T01:03:51;15.10;99.90
17348;DHT22;8791;50.876;4.342;2023-09-30T01:06:18;15.10;99.90
17348;DHT22;8791;50.876;4.342;2023-09-30T01:08:47;15.10;99.90
17348;DHT22;8791;50.876;4.342;2023-09-30T01:11:14;15.20;99.90
17348;DHT22;8791;50.876;4.342;2023-09-30T01:13:42;15.20;99.90
17348;DHT22;8791;50.876;4.342;2023-09-30T01:16:10;15.20;99.90
17348;DHT22;8791;50.876;4.342;2023-09-30T01:18:38;15.30;99.90
17348;DHT22;8791;50.876;4.342;2023-09-30T01:21:06;15.40;99.90
17348;DHT22;8791;50.876;4.342;2023-09-30T01:23:35;15.30;99.90
17348;DHT22;8791;50.876;4.342;2023-09-30T01:26:03;15.20;99.90
17348;DHT22;8791;50.876;4.342;2023-09-30T01:28:31;15.20;99.90
17348;DHT22;8791;50.876;4.342;2023-09-30T01:30:58;15.20;99.90
17348;DHT22;8791;50.876;4.342;2023-09-30T01:33:25;15.10;99.90
17348;DHT22;8791;50.876;4.342;2023-09-30T01:35:52;15.10;99.90
17348;DHT22;8791;50.876;4.342;2023-09-30T01:38:19;15.10;99.90
17348;DHT22;8791;50.876;4.342;2023-09-30T01:40:48;15.20;99.90
17348;DHT22;8791;50.876;4.342;2023-09-30T01:43:15;15.10;99.90
17348;DHT22;8791;50.876;4.342;2023-09-30T01:45:42;15.10;99.90
17348;DHT22;8791;50.876;4.342;2023-09-30T01:48:10;15.10;99.90
17348;DHT22;8791;50.876;4.342;2023-09-30T01:50:37;15.10;99.90
17348;DHT22;8791;50.876;4.342;2023-09-30T01:53:04;14.90;99.90
17348;DHT22;8791;50.876;4.342;2023-09-30T01:55:32;14.90;99.90
17348;DHT22;8791;50.876;4.342;2023-09-30T01:58:00;14.80;99.90
17348;DHT22;8791;50.876;4.342;2023-09-30T02:00:27;14.90;99.90
17348;DHT22;8791;50.876;4.342;2023-09-30T02:02:54;14.80;99.90
17348;DHT22;8791;50.876;4.342;2023-09-30T02:05:22;14.80;99.90
17348;DHT22;8791;50.876;4.342;2023-09-30T02:07:49;14.90;99.90
17348;DHT22;8791;50.876;4.342;2023-09-30T02:10:16;14.90;99.90
17348;DHT22;8791;50.876;4.342;2023-09-30T02:12:44;14.90;99.90
17348;DHT22;8791;50.876;4.342;2023-09-30T02:15:13;14.90;99.90
17348;DHT22;8791;50.876;4.342;2023-09-30T02:17:41;14.70;99.90
17348;DHT22;8791;50.876;4.342;2023-09-30T02:20:11;14.80;99.90
17348;DHT22;8791;50.876;4.342;2023-09-30T02:22:41;14.70;99.90
17348;DHT22;8791;50.876;4.342;2023-09-30T02:25:09;14.70;99.90
17348;DHT22;8791;50.876;4.342;2023-09-30T02:27:38;14.60;99.90
17348;DHT22;8791;50.876;4.342;2023-09-30T02:30:08;14.80;99.90
17348;DHT22;8791;50.876;4.342;2023-09-30T02:32:38;14.80;99.90
17348;DHT22;8791;50.876;4.342;2023-09-30T02:35:06;14.70;99.90
17348;DHT22;8791;50.876;4.342;2023-09-30T02:37:33;14.60;99.90
17348;DHT22;8791;50.876;4.342;2023-09-30T02:40:02;14.60;99.90
17348;DHT22;8791;50.876;4.342;2023-09-30T02:42:31;14.50;99.90
17348;DHT22;8791;50.876;4.342;2023-09-30T02:44:59;14.40;99.90
17348;DHT22;8791;50.876;4.342;2023-09-30T02:47:26;14.50;99.90
17348;DHT22;8791;50.876;4.342;2023-09-30T02:49:56;14.50;99.90
17348;DHT22;8791;50.876;4.342;2023-09-30T02:52:23;14.60;99.90
17348;DHT22;8791;50.876;4.342;2023-09-30T02:54:51;14.50;99.90
17348;DHT22;8791;50.876;4.342;2023-09-30T02:57:18;14.60;99.90
17348;DHT22;8791;50.876;4.342;2023-09-30T02:59:45;14.60;99.90
17348;DHT22;8791;50.876;4.342;2023-09-30T03:02:12;14.60;99.90
17348;DHT22;8791;50.876;4.342;2023-09-30T03:04:39;14.70;99.90
17348;DHT22;8791;50.876;4.342;2023-09-30T03:07:07;14.60;99.90
17348;DHT22;8791;50.876;4.342;2023-09-30T03:09:35;14.60;99.90
17348;DHT22;8791;50.876;4.342;2023-09-30T03:12:03;14.60;99.90
17348;DHT22;8791;50.876;4.342;2023-09-30T03:14:30;14.50;99.90
17348;DHT22;8791;50.876;4.342;2023-09-30T03:16:57;14.50;99.90
17348;DHT22;8791;50.876;4.342;2023-09-30T03:19:24;14.60;99.90
17348;DHT22;8791;50.876;4.342;2023-09-30T03:21:51;14.50;99.90
17348;DHT22;8791;50.876;4.342;2023-09-30T03:24:20;14.50;99.90
17348;DHT22;8791;50.876;4.342;2023-09-30T03:26:48;14.60;99.90
17348;DHT22;8791;50.876;4.342;2023-09-30T03:29:15;14.60;99.90
17348;DHT22;8791;50.876;4.342;2023-09-30T03:31:42;14.50;99.90
17348;DHT22;8791;50.876;4.342;2023-09-30T03:34:09;14.60;99.90
17348;DHT22;8791;50.876;4.342;2023-09-30T03:36:37;14.50;99.90
17348;DHT22;8791;50.876;4.342;2023-09-30T03:39:06;14.50;99.90
17348;DHT22;8791;50.876;4.342;2023-09-30T03:41:35;14.60;99.90
17348;DHT22;8791;50.876;4.342;2023-09-30T03:44:03;14.70;99.90
17348;DHT22;8791;50.876;4.342;2023-09-30T03:46:30;14.50;99.90
17348;DHT22;8791;50.876;4.342;2023-09-30T03:48:57;14.40;99.90
17348;DHT22;8791;50.876;4.342;2023-09-30T03:51:24;14.50;99.90
17348;DHT22;8791;50.876;4.342;2023-09-30T03:53:51;14.50;99.90
17348;DHT22;8791;50.876;4.342;2023-09-30T03:56:18;14.40;99.90
17348;DHT22;8791;50.876;4.342;2023-09-30T03:58:49;14.30;99.90
17348;DHT22;8791;50.876;4.342;2023-09-30T04:01:18;14.30;99.90
17348;DHT22;8791;50.876;4.342;2023-09-30T04:03:45;14.30;99.90
17348;DHT22;8791;50.876;4.342;2023-09-30T04:06:12;14.40;99.90
17348;DHT22;8791;50.876;4.342;2023-09-30T04:08:39;14.30;99.90
17348;DHT22;8791;50.876;4.342;2023-09-30T04:11:09;14.30;99.90
17348;DHT22;8791;50.876;4.342;2023-09-30T04:13:42;14.40;99.90
17348;DHT22;8791;50.876;4.342;2023-09-30T04:16:10;14.40;99.90
17348;DHT22;8791;50.876;4.342;2023-09-30T04:18:37;14.30;99.90
17348;DHT22;8791;50.876;4.342;2023-09-30T04:21:06;14.20;99.90
17348;DHT22;8791;50.876;4.342;2023-09-30T04:23:34;14.10;99.90
17348;DHT22;8791;50.876;4.342;2023-09-30T04:26:02;14.00;99.90
17348;DHT22;8791;50.876;4.342;2023-09-30T04:28:30;13.90;99.90
17348;DHT22;8791;50.876;4.342;2023-09-30T04:30:59;13.90;99.90
17348;DHT22;8791;50.876;4.342;2023-09-30T04:33:29;14.00;99.90
17348;DHT22;8791;50.876;4.342;2023-09-30T04:35:56;13.90;99.90
17348;DHT22;8791;50.876;4.342;2023-09-30T04:38:23;14.00;99.90
17348;DHT22;8791;50.876;4.342;2023-09-30T04:40:51;14.10;99.90
17348;DHT22;8791;50.876;4.342;2023-09-30T04:43:19;14.20;99.90
17348;DHT22;8791;50.876;4.342;2023-09-30T04:45:47;14.10;99.90
17348;DHT22;8791;50.876;4.342;2023-09-30T04:48:18;14.00;99.90
17348;DHT22;8791;50.876;4.342;2023-09-30T04:50:46;13.90;99.90
17348;DHT22;8791;50.876;4.342;2023-09-30T04:53:13;13.80;99.90
17348;DHT22;8791;50.876;4.342;2023-09-30T04:55:41;13.80;99.90
17348;DHT22;8791;50.876;4.342;2023-09-30T04:58:08;13.80;99.90
17348;DHT22;8791;50.876;4.342;2023-09-30T05:00:35;13.80;99.90
17348;DHT22;8791;50.876;4.342;2023-09-30T05:03:02;13.80;99.90
17348;DHT22;8791;50.876;4.342;2023-09-30T05:05:30;13.80;99.90
17348;DHT22;8791;50.876;4.342;2023-09-30T05:07:58;13.80;99.90
17348;DHT22;8791;50.876;4.342;2023-09-30T05:10:25;13.70;99.90
17348;DHT22;8791;50.876;4.342;2023-09-30T05:12:53;13.80;99.90
17348;DHT22;8791;50.876;4.342;2023-09-30T05:15:21;13.80;99.90
17348;DHT22;8791;50.876;4.342;2023-09-30T05:17:48;13.80;99.90
17348;DHT22;8791;50.876;4.342;2023-09-30T05:20:16;13.90;99.90
17348;DHT22;8791;50.876;4.342;2023-09-30T05:22:44;13.80;99.90
17348;DHT22;8791;50.876;4.342;2023-09-30T05:25:13;13.80;99.90
17348;DHT22;8791;50.876;4.342;2023-09-30T05:27:41;13.80;99.90
17348;DHT22;8791;50.876;4.342;2023-09-30T05:30:09;13.80;99.90
17348;DHT22;8791;50.876;4.342;2023-09-30T05:32:36;13.80;99.90
17348;DHT22;8791;50.876;4.342;2023-09-30T05:35:05;13.80;99.90
17348;DHT22;8791;50.876;4.342;2023-09-30T05:37:38;13.70;99.90
17348;DHT22;8791;50.876;4.342;2023-09-30T05:40:07;13.80;99.90
17348;DHT22;8791;50.876;4.342;2023-09-30T05:42:43;13.70;99.90
17348;DHT22;8791;50.876;4.342;2023-09-30T05:45:10;13.70;99.90
17348;DHT22;8791;50.876;4.342;2023-09-30T05:47:38;13.80;99.90
17348;DHT22;8791;50.876;4.342;2023-09-30T05:50:07;13.70;99.90
17348;DHT22;8791;50.876;4.342;2023-09-30T05:52:34;13.70;99.90
17348;DHT22;8791;50.876;4.342;2023-09-30T05:55:03;13.80;99.90
17348;DHT22;8791;50.876;4.342;2023-09-30T05:57:30;13.90;99.90
17348;DHT22;8791;50.876;4.342;2023-09-30T05:59:58;13.90;99.90
17348;DHT22;8791;50.876;4.342;2023-09-30T06:02:25;13.90;99.90
17348;DHT22;8791;50.876;4.342;2023-09-30T06:04:52;13.90;99.90
17348;DHT22;8791;50.876;4.342;2023-09-30T06:07:19;13.80;99.90
17348;DHT22;8791;50.876;4.342;2023-09-30T06:09:46;13.70;99.90
17348;DHT22;8791;50.876;4.342;2023-09-30T06:12:13;13.80;99.90
17348;DHT22;8791;50.876;4.342;2023-09-30T06:14:40;13.80;99.90
17348;DHT22;8791;50.876;4.342;2023-09-30T06:17:09;13.80;99.90
17348;DHT22;8791;50.876;4.342;2023-09-30T06:19:35;13.80;99.90
17348;DHT22;8791;50.876;4.342;2023-09-30T06:22:03;13.80;99.90
17348;DHT22;8791;50.876;4.342;2023-09-30T06:24:30;13.90;99.90
17348;DHT22;8791;50.876;4.342;2023-09-30T06:26:57;14.00;99.90
17348;DHT22;8791;50.876;4.342;2023-09-30T06:29:24;14.10;99.90
17348;DHT22;8791;50.876;4.342;2023-09-30T06:31:52;14.20;99.90
17348;DHT22;8791;50.876;4.342;2023-09-30T06:34:20;14.30;99.90
17348;DHT22;8791;50.876;4.342;2023-09-30T06:36:47;14.30;99.90
17348;DHT22;8791;50.876;4.342;2023-09-30T06:39:15;14.20;99.90
17348;DHT22;8791;50.876;4.342;2023-09-30T06:41:41;14.20;99.90
17348;DHT22;8791;50.876;4.342;2023-09-30T06:44:09;14.20;99.90
17348;DHT22;8791;50.876;4.342;2023-09-30T06:46:36;14.20;99.90
17348;DHT22;8791;50.876;4.342;2023-09-30T06:49:03;14.40;99.90
17348;DHT22;8791;50.876;4.342;2023-09-30T06:51:31;14.60;99.90
17348;DHT22;8791;50.876;4.342;2023-09-30T06:53:58;14.80;99.90
17348;DHT22;8791;50.876;4.342;2023-09-30T06:56:26;14.70;99.90
17348;DHT22;8791;50.876;4.342;2023-09-30T06:58:53;14.70;99.90
17348;DHT22;8791;50.876;4.342;2023-09-30T07:01:20;14.70;99.90
17348;DHT22;8791;50.876;4.342;2023-09-30T07:03:47;14.70;99.90
17348;DHT22;8791;50.876;4.342;2023-09-30T07:06:22;14.70;99.90
17348;DHT22;8791;50.876;4.342;2023-09-30T07:08:50;14.80;99.90
17348;DHT22;8791;50.876;4.342;2023-09-30T07:11:26;14.80;99.90
17348;DHT22;8791;50.876;4.342;2023-09-30T07:13:53;14.80;99.90
17348;DHT22;8791;50.876;4.342;2023-09-30T07:16:20;14.80;99.90
17348;DHT22;8791;50.876;4.342;2023-09-30T07:18:47;14.90;99.90
17348;DHT22;8791;50.876;4.342;2023-09-30T07:21:14;15.10;99.90
17348;DHT22;8791;50.876;4.342;2023-09-30T07:23:41;15.20;99.90
17348;DHT22;8791;50.876;4.342;2023-09-30T07:26:09;15.20;99.90
17348;DHT22;8791;50.876;4.342;2023-09-30T07:28:36;15.20;99.90
17348;DHT22;8791;50.876;4.342;2023-09-30T07:31:03;15.20;99.90
17348;DHT22;8791;50.876;4.342;2023-09-30T07:33:30;15.20;99.90
17348;DHT22;8791;50.876;4.342;2023-09-30T07:35:59;15.30;99.90
17348;DHT22;8791;50.876;4.342;2023-09-30T07:38:26;15.40;99.90
17348;DHT22;8791;50.876;4.342;2023-09-30T07:40:53;15.60;99.90
17348;DHT22;8791;50.876;4.342;2023-09-30T07:43:21;15.70;99.90
17348;DHT22;8791;50.876;4.342;2023-09-30T07:45:48;15.90;99.90
17348;DHT22;8791;50.876;4.342;2023-09-30T07:48:15;15.90;99.90
17348;DHT22;8791;50.876;4.342;2023-09-30T07:50:42;15.90;99.90
17348;DHT22;8791;50.876;4.342;2023-09-30T07:53:09;16.00;99.90
17348;DHT22;8791;50.876;4.342;2023-09-30T07:55:37;16.20;99.90
17348;DHT22;8791;50.876;4.342;2023-09-30T07:58:05;16.10;99.90
17348;DHT22;8791;50.876;4.342;2023-09-30T08:00:34;16.10;99.90
17348;DHT22;8791;50.876;4.342;2023-09-30T08:03:02;16.10;99.90
17348;DHT22;8791;50.876;4.342;2023-09-30T08:05:29;16.20;99.90
17348;DHT22;8791;50.876;4.342;2023-09-30T08:07:56;16.20;99.90
17348;DHT22;8791;50.876;4.342;2023-09-30T08:10:23;16.40;99.90
17348;DHT22;8791;50.876;4.342;2023-09-30T08:12:50;16.30;99.90
17348;DHT22;8791;50.876;4.342;2023-09-30T08:15:17;16.20;99.90
17348;DHT22;8791;50.876;4.342;2023-09-30T08:17:45;16.30;99.90
17348;DHT22;8791;50.876;4.342;2023-09-30T08:20:12;16.40;99.90
17348;DHT22;8791;50.876;4.342;2023-09-30T08:22:40;16.50;99.90
17348;DHT22;8791;50.876;4.342;2023-09-30T08:25:08;16.40;99.90
17348;DHT22;8791;50.876;4.342;2023-09-30T08:27:37;16.50;99.90
17348;DHT22;8791;50.876;4.342;2023-09-30T08:30:05;16.50;99.90
17348;DHT22;8791;50.876;4.342;2023-09-30T08:32:33;16.60;99.90
17348;DHT22;8791;50.876;4.342;2023-09-30T08:35:01;16.50;99.90
17348;DHT22;8791;50.876;4.342;2023-09-30T08:37:29;16.40;99.90
17348;DHT22;8791;50.876;4.342;2023-09-30T08:39:57;16.30;99.90
17348;DHT22;8791;50.876;4.342;2023-09-30T08:42:23;16.30;99.90
17348;DHT22;8791;50.876;4.342;2023-09-30T08:44:55;16.20;99.90
17348;DHT22;8791;50.876;4.342;2023-09-30T08:47:25;16.40;99.90
17348;DHT22;8791;50.876;4.342;2023-09-30T08:49:54;16.60;99.90
17348;DHT22;8791;50.876;4.342;2023-09-30T08:52:24;16.80;99.90
17348;DHT22;8791;50.876;4.342;2023-09-30T08:54:54;16.90;99.90
17348;DHT22;8791;50.876;4.342;2023-09-30T08:57:21;17.00;99.90
17348;DHT22;8791;50.876;4.342;2023-09-30T08:59:48;16.80;99.90
17348;DHT22;8791;50.876;4.342;2023-09-30T09:02:16;16.80;99.90
17348;DHT22;8791;50.876;4.342;2023-09-30T09:04:43;16.80;99.90
17348;DHT22;8791;50.876;4.342;2023-09-30T09:07:11;16.90;99.90
17348;DHT22;8791;50.876;4.342;2023-09-30T09:09:39;16.90;99.90
17348;DHT22;8791;50.876;4.342;2023-09-30T09:12:17;16.90;99.90
17348;DHT22;8791;50.876;4.342;2023-09-30T09:14:45;17.00;99.90
17348;DHT22;8791;50.876;4.342;2023-09-30T09:17:13;17.10;99.90
17348;DHT22;8791;50.876;4.342;2023-09-30T09:19:41;17.20;99.90
17348;DHT22;8791;50.876;4.342;2023-09-30T09:22:08;17.40;99.90
17348;DHT22;8791;50.876;4.342;2023-09-30T09:24:36;17.50;99.90
17348;DHT22;8791;50.876;4.342;2023-09-30T09:27:07;17.60;99.90
17348;DHT22;8791;50.876;4.342;2023-09-30T09:29:34;17.50;99.90
17348;DHT22;8791;50.876;4.342;2023-09-30T09:32:09;17.60;99.90
17348;DHT22;8791;50.876;4.342;2023-09-30T09:34:36;17.80;99.90
17348;DHT22;8791;50.876;4.342;2023-09-30T09:37:13;17.80;99.90
17348;DHT22;8791;50.876;4.342;2023-09-30T09:39:52;17.80;99.90
17348;DHT22;8791;50.876;4.342;2023-09-30T09:42:28;17.60;99.90
17348;DHT22;8791;50.876;4.342;2023-09-30T09:44:57;17.70;99.90
17348;DHT22;8791;50.876;4.342;2023-09-30T09:47:24;17.80;99.90
17348;DHT22;8791;50.876;4.342;2023-09-30T09:49:51;17.70;99.90
17348;DHT22;8791;50.876;4.342;2023-09-30T09:52:18;17.90;99.90
17348;DHT22;8791;50.876;4.342;2023-09-30T09:54:46;18.10;99.90
17348;DHT22;8791;50.876;4.342;2023-09-30T09:57:12;18.10;99.90
17348;DHT22;8791;50.876;4.342;2023-09-30T09:59:43;18.10;99.90
17348;DHT22;8791;50.876;4.342;2023-09-30T10:02:12;18.20;99.90
17348;DHT22;8791;50.876;4.342;2023-09-30T10:04:40;18.30;99.90
17348;DHT22;8791;50.876;4.342;2023-09-30T10:07:10;18.40;99.90
17348;DHT22;8791;50.876;4.342;2023-09-30T10:09:45;18.50;99.90
17348;DHT22;8791;50.876;4.342;2023-09-30T10:12:14;18.50;99.90
17348;DHT22;8791;50.876;4.342;2023-09-30T10:14:43;18.70;99.90
17348;DHT22;8791;50.876;4.342;2023-09-30T10:17:10;18.90;99.90
17348;DHT22;8791;50.876;4.342;2023-09-30T10:20:04;18.90;99.90
17348;DHT22;8791;50.876;4.342;2023-09-30T10:22:32;18.80;99.90
17348;DHT22;8791;50.876;4.342;2023-09-30T10:25:00;18.80;99.90
17348;DHT22;8791;50.876;4.342;2023-09-30T10:27:36;18.90;99.90
17348;DHT22;8791;50.876;4.342;2023-09-30T10:30:12;19.00;99.90
17348;DHT22;8791;50.876;4.342;2023-09-30T10:33:07;19.10;99.90
17348;DHT22;8791;50.876;4.342;2023-09-30T10:35:44;19.20;99.90
17348;DHT22;8791;50.876;4.342;2023-09-30T10:38:38;19.40;99.90
17348;DHT22;8791;50.876;4.342;2023-09-30T10:41:08;19.50;99.90
17348;DHT22;8791;50.876;4.342;2023-09-30T10:43:36;19.50;99.90
17348;DHT22;8791;50.876;4.342;2023-09-30T10:46:31;19.50;99.90
17348;DHT22;8791;50.876;4.342;2023-09-30T10:49:15;19.30;99.90
17348;DHT22;8791;50.876;4.342;2023-09-30T10:51:44;19.30;99.90
17348;DHT22;8791;50.876;4.342;2023-09-30T10:54:12;19.30;99.90
17348;DHT22;8791;50.876;4.342;2023-09-30T10:56:39;19.30;99.90
17348;DHT22;8791;50.876;4.342;2023-09-30T10:59:07;19.40;99.90
17348;DHT22;8791;50.876;4.342;2023-09-30T11:01:36;19.50;99.90
17348;DHT22;8791;50.876;4.342;2023-09-30T11:04:06;19.50;99.90
17348;DHT22;8791;50.876;4.342;2023-09-30T11:06:34;19.50;99.90
17348;DHT22;8791;50.876;4.342;2023-09-30T11:09:02;19.60;99.90
17348;DHT22;8791;50.876;4.342;2023-09-30T11:11:36;19.60;99.90
17348;DHT22;8791;50.876;4.342;2023-09-30T11:14:17;19.60;99.90
17348;DHT22;8791;50.876;4.342;2023-09-30T11:16:46;19.70;99.90
17348;DHT22;8791;50.876;4.342;2023-09-30T11:19:13;19.90;99.90
17348;DHT22;8791;50.876;4.342;2023-09-30T11:21:40;19.70;99.90
17348;DHT22;8791;50.876;4.342;2023-09-30T11:24:09;19.60;99.90
17348;DHT22;8791;50.876;4.342;2023-09-30T11:26:37;19.70;99.90
17348;DHT22;8791;50.876;4.342;2023-09-30T11:29:08;19.70;99.90
17348;DHT22;8791;50.876;4.342;2023-09-30T11:31:37;19.60;99.90
17348;DHT22;8791;50.876;4.342;2023-09-30T11:34:06;19.90;99.90
17348;DHT22;8791;50.876;4.342;2023-09-30T11:36:35;20.00;99.90
17348;DHT22;8791;50.876;4.342;2023-09-30T11:39:03;19.70;99.90
17348;DHT22;8791;50.876;4.342;2023-09-30T11:41:34;19.90;99.90
17348;DHT22;8791;50.876;4.342;2023-09-30T11:44:04;20.00;99.90
17348;DHT22;8791;50.876;4.342;2023-09-30T11:46:46;20.20;99.90
17348;DHT22;8791;50.876;4.342;2023-09-30T11:49:24;20.10;99.90
17348;DHT22;8791;50.876;4.342;2023-09-30T11:51:52;19.90;99.90
17348;DHT22;8791;50.876;4.342;2023-09-30T11:54:19;19.80;99.90
17348;DHT22;8791;50.876;4.342;2023-09-30T11:56:47;19.50;99.90
17348;DHT22;8791;50.876;4.342;2023-09-30T11:59:16;19.50;99.90
17348;DHT22;8791;50.876;4.342;2023-09-30T12:01:45;19.80;99.90
17348;DHT22;8791;50.876;4.342;2023-09-30T12:04:15;20.00;99.90
17348;DHT22;8791;50.876;4.342;2023-09-30T12:06:45;20.30;99.90
17348;DHT22;8791;50.876;4.342;2023-09-30T12:09:12;20.30;99.90
17348;DHT22;8791;50.876;4.342;2023-09-30T12:11:41;20.60;99.90
17348;DHT22;8791;50.876;4.342;2023-09-30T12:14:10;20.70;99.90
17348;DHT22;8791;50.876;4.342;2023-09-30T12:16:38;20.70;99.90
17348;DHT22;8791;50.876;4.342;2023-09-30T12:19:07;20.70;99.90
17348;DHT22;8791;50.876;4.342;2023-09-30T12:21:35;20.90;99.90
17348;DHT22;8791;50.876;4.342;2023-09-30T12:24:02;21.00;99.90
17348;DHT22;8791;50.876;4.342;2023-09-30T12:26:30;21.10;99.90
17348;DHT22;8791;50.876;4.342;2023-09-30T12:28:57;21.10;99.90
17348;DHT22;8791;50.876;4.342;2023-09-30T12:31:24;21.20;99.90
17348;DHT22;8791;50.876;4.342;2023-09-30T12:33:51;21.50;99.90
17348;DHT22;8791;50.876;4.342;2023-09-30T12:36:22;21.70;99.90
17348;DHT22;8791;50.876;4.342;2023-09-30T12:38:51;21.70;99.90
17348;DHT22;8791;50.876;4.342;2023-09-30T12:41:18;21.60;99.90
17348;DHT22;8791;50.876;4.342;2023-09-30T12:43:46;21.60;99.90
17348;DHT22;8791;50.876;4.342;2023-09-30T12:46:13;21.60;99.90
17348;DHT22;8791;50.876;4.342;2023-09-30T12:48:40;21.40;99.90
17348;DHT22;8791;50.876;4.342;2023-09-30T12:51:07;21.40;99.90
17348;DHT22;8791;50.876;4.342;2023-09-30T12:53:35;21.50;99.90
17348;DHT22;8791;50.876;4.342;2023-09-30T12:56:04;21.40;99.90
17348;DHT22;8791;50.876;4.342;2023-09-30T12:58:32;21.30;99.90
17348;DHT22;8791;50.876;4.342;2023-09-30T13:00:59;21.40;99.90
17348;DHT22;8791;50.876;4.342;2023-09-30T13:03:26;21.60;99.90
17348;DHT22;8791;50.876;4.342;2023-09-30T13:05:53;21.60;99.90
17348;DHT22;8791;50.876;4.342;2023-09-30T13:08:20;21.60;99.90
17348;DHT22;8791;50.876;4.342;2023-09-30T13:10:47;21.60;99.90
17348;DHT22;8791;50.876;4.342;2023-09-30T13:13:17;21.50;99.90
17348;DHT22;8791;50.876;4.342;2023-09-30T13:15:44;21.50;99.90
17348;DHT22;8791;50.876;4.342;2023-09-30T13:18:10;21.30;99.90
17348;DHT22;8791;50.876;4.342;2023-09-30T13:20:37;21.20;99.90
17348;DHT22;8791;50.876;4.342;2023-09-30T13:23:04;21.10;99.90
17348;DHT22;8791;50.876;4.342;2023-09-30T13:25:30;21.20;99.90
17348;DHT22;8791;50.876;4.342;2023-09-30T13:27:57;21.10;99.90
17348;DHT22;8791;50.876;4.342;2023-09-30T13:30:26;21.10;99.90
17348;DHT22;8791;50.876;4.342;2023-09-30T13:32:53;21.10;99.90
17348;DHT22;8791;50.876;4.342;2023-09-30T13:35:20;21.10;99.90
17348;DHT22;8791;50.876;4.342;2023-09-30T13:37:47;21.20;99.90
17348;DHT22;8791;50.876;4.342;2023-09-30T13:40:14;21.30;99.90
17348;DHT22;8791;50.876;4.342;2023-09-30T13:42:42;21.20;99.90
17348;DHT22;8791;50.876;4.342;2023-09-30T13:45:11;21.30;99.90
17348;DHT22;8791;50.876;4.342;2023-09-30T13:47:39;21.50;99.90
17348;DHT22;8791;50.876;4.342;2023-09-30T13:50:07;21.50;99.90
17348;DHT22;8791;50.876;4.342;2023-09-30T13:52:35;21.30;99.90
17348;DHT22;8791;50.876;4.342;2023-09-30T13:55:02;21.30;99.90
17348;DHT22;8791;50.876;4.342;2023-09-30T13:57:30;21.50;99.90
17348;DHT22;8791;50.876;4.342;2023-09-30T13:59:57;21.60;99.90
17348;DHT22;8791;50.876;4.342;2023-09-30T14:02:24;21.60;99.90
17348;DHT22;8791;50.876;4.342;2023-09-30T14:04:52;21.60;99.90
17348;DHT22;8791;50.876;4.342;2023-09-30T14:07:20;21.70;99.90
17348;DHT22;8791;50.876;4.342;2023-09-30T14:09:47;21.70;99.90
17348;DHT22;8791;50.876;4.342;2023-09-30T14:12:14;21.70;99.90
17348;DHT22;8791;50.876;4.342;2023-09-30T14:14:41;21.80;99.90
17348;DHT22;8791;50.876;4.342;2023-09-30T14:17:08;21.80;99.90
17348;DHT22;8791;50.876;4.342;2023-09-30T14:19:39;21.80;99.90
17348;DHT22;8791;50.876;4.342;2023-09-30T14:22:07;21.50;99.90
17348;DHT22;8791;50.876;4.342;2023-09-30T14:24:35;21.50;99.90
17348;DHT22;8791;50.876;4.342;2023-09-30T14:27:02;21.60;99.90
17348;DHT22;8791;50.876;4.342;2023-09-30T14:29:30;21.80;99.90
17348;DHT22;8791;50.876;4.342;2023-09-30T14:31:59;22.00;99.90
17348;DHT22;8791;50.876;4.342;2023-09-30T14:34:26;21.80;99.90
17348;DHT22;8791;50.876;4.342;2023-09-30T14:36:53;21.70;99.90
17348;DHT22;8791;50.876;4.342;2023-09-30T14:39:22;21.80;99.90
17348;DHT22;8791;50.876;4.342;2023-09-30T14:41:49;21.70;99.90
17348;DHT22;8791;50.876;4.342;2023-09-30T14:44:16;21.50;99.90
17348;DHT22;8791;50.876;4.342;2023-09-30T14:46:43;21.20;99.90
17348;DHT22;8791;50.876;4.342;2023-09-30T14:49:10;21.10;99.90
17348;DHT22;8791;50.876;4.342;2023-09-30T14:51:38;21.10;99.90
17348;DHT22;8791;50.876;4.342;2023-09-30T14:54:05;21.20;99.90
17348;DHT22;8791;50.876;4.342;2023-09-30T14:56:34;21.30;99.90
17348;DHT22;8791;50.876;4.342;2023-09-30T14:59:01;21.30;99.90
17348;DHT22;8791;50.876;4.342;2023-09-30T15:01:29;21.30;99.90
17348;DHT22;8791;50.876;4.342;2023-09-30T15:03:56;21.10;99.90
17348;DHT22;8791;50.876;4.342;2023-09-30T15:06:26;21.20;99.90
17348;DHT22;8791;50.876;4.342;2023-09-30T15:08:57;21.40;99.90
17348;DHT22;8791;50.876;4.342;2023-09-30T15:11:25;21.40;99.90
17348;DHT22;8791;50.876;4.342;2023-09-30T15:13:53;21.30;99.90
17348;DHT22;8791;50.876;4.342;2023-09-30T15:16:22;21.30;99.90
17348;DHT22;8791;50.876;4.342;2023-09-30T15:18:50;21.50;99.90
17348;DHT22;8791;50.876;4.342;2023-09-30T15:21:20;21.50;99.90
17348;DHT22;8791;50.876;4.342;2023-09-30T15:23:48;21.30;99.90
17348;DHT22;8791;50.876;4.342;2023-09-30T15:26:16;21.30;99.90
17348;DHT22;8791;50.876;4.342;2023-09-30T15:28:44;21.30;99.90
17348;DHT22;8791;50.876;4.342;2023-09-30T15:31:14;21.30;99.90
17348;DHT22;8791;50.876;4.342;2023-09-30T15:33:41;21.30;99.90
17348;DHT22;8791;50.876;4.342;2023-09-30T15:36:10;21.40;99.90
17348;DHT22;8791;50.876;4.342;2023-09-30T15:38:37;21.20;99.90
17348;DHT22;8791;50.876;4.342;2023-09-30T15:41:08;21.10;99.90
17348;DHT22;8791;50.876;4.342;2023-09-30T15:43:38;21.00;99.90
17348;DHT22;8791;50.876;4.342;2023-09-30T15:46:08;21.20;99.90
17348;DHT22;8791;50.876;4.342;2023-09-30T15:48:51;21.30;99.90
17348;DHT22;8791;50.876;4.342;2023-09-30T15:51:18;21.30;99.90
17348;DHT22;8791;50.876;4.342;2023-09-30T15:53:47;21.30;99.90